Time;durP1;ratioP1;P1;durP2;ratioP2;P2;SDS_P1;SDS_P2;PMS_P1;PMS_P2;Temp;Humidity;BMP_temperature;BMP_pressure;BME280_temperature;BME280_humidity;BME280_pressure;Samples;Min_cycle;Max_cycle;Signal;HPM_P1;HPM_P2
2023/11/03 00:01:16;;;;;;;7.50;3.80;;;;;;;6.62;100.00;100363.82;104880;1253;60457;-49
2023/11/03 00:03:43;;;;;;;4.50;3.40;;;;;;;6.61;100.00;100360.27;105368;1253;72744;-50
2023/11/03 00:06:11;;;;;;;6.20;3.30;;;;;;;6.61;100.00;100360.82;106034;1257;66421;-48
2023/11/03 00:08:38;;;;;;;3.10;2.80;;;;;;;6.60;100.00;100362.42;104903;1258;72481;-50
2023/11/03 00:11:06;;;;;;;4.40;3.00;;;;;;;6.60;100.00;100363.85;105013;1257;60490;-48
2023/11/03 00:13:34;;;;;;;3.60;3.00;;;;;;;6.60;100.00;100364.56;104733;1258;59183;-49
2023/11/03 00:16:03;;;;;;;3.30;3.00;;;;;;;6.60;100.00;100365.29;104911;1254;74388;-49
2023/11/03 00:18:31;;;;;;;3.90;3.50;;;;;;;6.62;100.00;100369.36;104894;1254;66941;-49
2023/11/03 00:21:00;;;;;;;4.30;3.70;;;;;;;6.62;100.00;100372.02;105121;1254;74677;-49
2023/11/03 00:23:27;;;;;;;3.80;3.20;;;;;;;6.60;100.00;100369.20;105257;1254;60358;-50
2023/11/03 00:25:55;;;;;;;3.40;2.90;;;;;;;6.57;100.00;100364.45;104767;1254;60444;-50
2023/11/03 00:28:23;;;;;;;6.60;4.60;;;;;;;6.51;100.00;100361.38;104849;1254;74566;-48
2023/11/03 00:30:50;;;;;;;3.80;3.40;;;;;;;6.46;100.00;100355.44;109018;1253;66815;-50
2023/11/03 00:33:18;;;;;;;3.40;3.20;;;;;;;6.40;100.00;100350.55;109062;1253;71472;-51
2023/11/03 00:35:45;;;;;;;4.60;2.90;;;;;;;6.36;100.00;100355.12;106772;1253;60915;-50
2023/11/03 00:38:13;;;;;;;3.50;2.70;;;;;;;6.34;100.00;100355.87;104925;1259;60606;-49
2023/11/03 00:40:40;;;;;;;4.30;2.80;;;;;;;6.34;100.00;100357.48;109015;1253;72664;-51
2023/11/03 00:43:09;;;;;;;4.70;3.80;;;;;;;6.32;100.00;100355.55;109035;1254;67772;-50
2023/11/03 00:45:36;;;;;;;5.50;3.60;;;;;;;6.29;100.00;100352.59;109075;1256;73086;-50
2023/11/03 00:48:05;;;;;;;5.10;3.00;;;;;;;6.25;100.00;100354.45;109206;1253;61700;-52
2023/11/03 00:50:32;;;;;;;4.00;3.70;;;;;;;6.22;100.00;100354.33;108944;1254;59926;-51
2023/11/03 00:53:00;;;;;;;3.40;3.10;;;;;;;6.19;100.00;100352.81;108908;1254;73950;-51
2023/11/03 00:55:27;;;;;;;4.20;3.10;;;;;;;6.17;100.00;100354.63;109060;1252;67021;-50
2023/11/03 00:57:55;;;;;;;4.70;4.20;;;;;;;6.17;100.00;100358.02;108976;1252;72669;-51
2023/11/03 01:00:25;;;;;;;8.80;4.70;;;;;;;6.19;100.00;100358.16;109050;1253;60558;-50
2023/11/03 01:02:53;;;;;;;5.70;4.30;;;;;;;6.19;100.00;100354.96;107583;1257;58799;-50
2023/11/03 01:05:23;;;;;;;5.60;4.90;;;;;;;6.18;100.00;100349.80;109032;1253;75400;-51
2023/11/03 01:07:52;;;;;;;5.80;3.60;;;;;;;6.17;100.00;100349.64;109117;1253;65989;-51
2023/11/03 01:10:22;;;;;;;5.10;4.10;;;;;;;6.16;100.00;100353.05;109163;1254;73077;-51
2023/11/03 01:12:50;;;;;;;4.90;4.40;;;;;;;6.15;100.00;100352.34;109007;1253;60903;-51
2023/11/03 01:15:19;;;;;;;5.90;4.90;;;;;;;6.15;100.00;100352.35;109032;1253;60122;-51
2023/11/03 01:17:50;;;;;;;3.90;3.10;;;;;;;6.15;100.00;100347.01;107364;1255;72592;-49
2023/11/03 01:20:27;;;;;;;5.50;4.00;;;;;;;6.15;100.00;100344.15;109040;1254;65714;-51
2023/11/03 01:22:55;;;;;;;3.50;3.20;;;;;;;6.16;100.00;100350.38;106915;1254;71480;-50
2023/11/03 01:25:22;;;;;;;6.20;3.50;;;;;;;6.15;100.00;100345.40;104770;1258;61730;-49
2023/11/03 01:27:51;;;;;;;4.40;2.90;;;;;;;6.14;100.00;100338.64;104872;1257;60865;-50
2023/11/03 01:30:20;;;;;;;6.20;4.80;;;;;;;6.14;100.00;100336.86;105433;1256;72673;-50
2023/11/03 01:32:52;;;;;;;4.40;3.50;;;;;;;6.15;100.00;100335.23;105716;1254;68597;-51
2023/11/03 01:35:21;;;;;;;4.90;4.30;;;;;;;6.16;100.00;100339.69;104841;1254;72777;-49
2023/11/03 01:37:48;;;;;;;5.90;4.80;;;;;;;6.14;100.00;100339.54;105940;1254;60546;-49
2023/11/03 01:40:16;;;;;;;7.60;5.00;;;;;;;6.11;100.00;100340.70;104774;1254;60393;-51
2023/11/03 01:42:43;;;;;;;5.30;4.30;;;;;;;6.06;100.00;100336.30;104814;1257;72763;-51
2023/11/03 01:45:11;;;;;;;6.40;4.70;;;;;;;6.00;100.00;100333.23;104834;1254;67040;-51
2023/11/03 01:47:38;;;;;;;6.40;5.10;;;;;;;5.93;100.00;100330.52;105594;1257;71713;-51
2023/11/03 01:50:07;;;;;;;6.50;5.10;;;;;;;5.86;100.00;100326.38;104950;1254;60542;-50
2023/11/03 01:52:35;;;;;;;11.20;5.50;;;;;;;5.79;100.00;100326.69;105448;1254;60408;-48
2023/11/03 01:55:03;;;;;;;7.50;4.40;;;;;;;5.72;100.00;100323.45;105515;1253;73917;-49
2023/11/03 01:57:30;;;;;;;4.60;3.60;;;;;;;5.65;100.00;100322.33;109051;1254;65797;-51
2023/11/03 01:59:58;;;;;;;4.10;3.80;;;;;;;5.59;100.00;100324.23;108934;1254;71427;-49
2023/11/03 02:02:28;;;;;;;5.10;3.80;;;;;;;5.57;100.00;100323.55;108854;1254;62145;-49
2023/11/03 02:04:56;;;;;;;7.50;4.10;;;;;;;5.54;100.00;100319.52;105541;1254;60570;-52
2023/11/03 02:07:24;;;;;;;5.80;3.40;;;;;;;5.51;100.00;100318.87;104883;1254;73900;-50
2023/11/03 02:09:52;;;;;;;4.10;3.80;;;;;;;5.49;100.00;100318.73;104812;1257;67060;-51
2023/11/03 02:12:19;;;;;;;6.70;4.50;;;;;;;5.45;100.00;100322.17;104861;1254;71459;-49
2023/11/03 02:14:49;;;;;;;4.20;3.50;;;;;;;5.42;100.00;100318.67;104704;1259;61534;-50
2023/11/03 02:17:17;;;;;;;7.10;5.50;;;;;;;5.41;100.00;100321.02;104943;1257;60548;-50
2023/11/03 02:19:44;;;;;;;7.40;4.60;;;;;;;5.39;100.00;100318.01;104987;1253;73932;-50
2023/11/03 02:22:12;;;;;;;7.40;5.40;;;;;;;5.39;100.00;100309.11;104813;1257;66665;-49
2023/11/03 02:24:39;;;;;;;5.50;5.00;;;;;;;5.36;100.00;100306.13;104871;1254;73658;-49
2023/11/03 02:27:07;;;;;;;6.30;5.10;;;;;;;5.32;100.00;100304.79;104891;1259;60479;-48
2023/11/03 02:29:34;;;;;;;6.50;5.70;;;;;;;5.29;100.00;100307.50;104870;1254;60503;-50
2023/11/03 02:32:02;;;;;;;9.30;5.90;;;;;;;5.26;100.00;100309.18;104729;1254;73841;-48
2023/11/03 02:34:29;;;;;;;8.50;6.50;;;;;;;5.23;100.00;100304.60;104951;1254;67885;-49
2023/11/03 02:36:57;;;;;;;8.30;5.10;;;;;;;5.21;100.00;100300.55;104603;1257;72534;-50
2023/11/03 02:39:25;;;;;;;9.30;6.30;;;;;;;5.19;100.00;100299.35;104738;1256;60523;-48
2023/11/03 02:41:53;;;;;;;9.50;5.80;;;;;;;5.16;100.00;100303.84;107677;1254;60463;-50
2023/11/03 02:44:20;;;;;;;9.00;6.70;;;;;;;5.14;100.00;100301.38;104861;1254;73774;-51
2023/11/03 02:46:48;;;;;;;8.10;6.20;;;;;;;5.13;100.00;100303.71;106898;1257;67814;-49
2023/11/03 02:49:15;;;;;;;9.30;7.00;;;;;;;5.12;100.00;100301.05;104712;1254;71851;-50
2023/11/03 02:51:43;;;;;;;8.60;6.30;;;;;;;5.11;100.00;100299.66;104897;1257;61710;-50
2023/11/03 02:54:11;;;;;;;9.20;7.40;;;;;;;5.10;100.00;100302.54;105618;1254;60530;-47
2023/11/03 02:56:38;;;;;;;10.80;9.20;;;;;;;5.08;100.00;100297.04;104891;1257;73883;-48
2023/11/03 02:59:08;;;;;;;11.10;8.70;;;;;;;5.06;100.00;100292.80;105022;1254;68002;-48
2023/11/03 03:01:40;;;;;;;12.10;9.20;;;;;;;5.04;100.00;100288.39;105749;1258;73178;-50
2023/11/03 03:04:08;;;;;;;14.20;9.20;;;;;;;5.00;100.00;100287.05;105743;1254;60488;-50
2023/11/03 03:06:36;;;;;;;15.10;11.40;;;;;;;4.95;100.00;100285.52;105746;1259;60556;-50
2023/11/03 03:09:03;;;;;;;13.70;10.60;;;;;;;4.91;100.00;100283.65;104758;1257;75890;-49
2023/11/03 03:11:31;;;;;;;16.20;11.00;;;;;;;4.88;100.00;100287.42;104907;1254;66662;-49
2023/11/03 03:13:59;;;;;;;13.20;8.70;;;;;;;4.86;100.00;100289.23;104857;1257;73485;-50
2023/11/03 03:16:27;;;;;;;13.70;10.00;;;;;;;4.85;100.00;100283.73;107345;1254;60158;-49
2023/11/03 03:18:55;;;;;;;9.50;8.00;;;;;;;4.87;100.00;100285.13;104630;1254;324190;-51
2023/11/03 03:22:19;;;;;;;10.50;7.40;;;;;;;4.89;100.00;100390.55;101889;1293;600848;-50
2023/11/03 03:24:47;;;;;;;9.30;7.40;;;;;;;4.91;100.00;100394.98;104039;1267;60460;-51
2023/11/03 03:27:14;;;;;;;12.40;9.40;;;;;;;4.95;100.00;100378.18;103949;1270;59362;-50
2023/11/03 03:29:42;;;;;;;9.30;7.60;;;;;;;4.97;100.00;100363.04;103964;1266;70169;-51
2023/11/03 03:32:09;;;;;;;11.60;7.80;;;;;;;4.99;100.00;100358.39;104128;1267;65956;-51
2023/11/03 03:34:37;;;;;;;8.60;7.30;;;;;;;5.00;100.00;100345.58;104121;1270;72721;-50
2023/11/03 03:37:04;;;;;;;8.00;7.30;;;;;;;5.02;100.00;100338.60;104005;1263;183927;-50
2023/11/03 03:39:31;;;;;;;7.60;6.90;;;;;;;5.03;100.00;100338.39;104050;1266;61418;-49
2023/11/03 03:41:59;;;;;;;7.00;6.40;;;;;;;5.04;100.00;100333.57;104116;1262;70985;-48
2023/11/03 03:44:27;;;;;;;8.90;7.20;;;;;;;5.04;100.00;100329.48;104164;1264;65924;-51
2023/11/03 03:46:54;;;;;;;12.70;8.90;;;;;;;5.03;100.00;100320.42;104141;1265;72690;-50
2023/11/03 03:49:21;;;;;;;9.80;7.10;;;;;;;5.01;100.00;100320.66;104014;1263;59672;-51
2023/11/03 03:51:49;;;;;;;9.50;8.10;;;;;;;4.99;100.00;100313.04;104148;1264;61086;-50
2023/11/03 03:54:16;;;;;;;10.10;7.60;;;;;;;4.97;100.00;100310.56;108341;1266;71810;-51
2023/11/03 03:56:44;;;;;;;13.10;10.30;;;;;;;4.95;100.00;100307.57;108356;1263;67372;-52
2023/11/03 03:59:12;;;;;;;9.70;8.70;;;;;;;4.92;100.00;100303.00;108345;1262;72792;-52
2023/11/03 04:01:41;;;;;;;10.20;7.70;;;;;;;4.88;100.00;100294.35;108421;1262;59579;-52
2023/11/03 04:04:09;;;;;;;10.50;8.00;;;;;;;4.84;100.00;100291.41;108295;1264;58972;-51
2023/11/03 04:06:37;;;;;;;8.30;7.20;;;;;;;4.79;100.00;100288.45;109058;1253;73529;-51
2023/11/03 04:09:05;;;;;;;9.70;8.10;;;;;;;4.75;100.00;100286.75;109114;1251;66098;-52
2023/11/03 04:11:33;;;;;;;10.40;7.00;;;;;;;4.72;100.00;100281.29;109174;1251;72908;-51
2023/11/03 04:14:00;;;;;;;8.80;7.00;;;;;;;4.70;100.00;100274.55;106410;1257;63725;-51
2023/11/03 04:16:32;;;;;;;8.50;6.80;;;;;;;4.69;100.00;100270.83;104889;1254;59695;-50
2023/11/03 04:19:00;;;;;;;14.70;7.10;;;;;;;4.68;100.00;100265.70;109075;1251;73762;-51
2023/11/03 04:21:28;;;;;;;9.30;7.40;;;;;;;4.67;100.00;100261.48;109070;1254;67344;-51
2023/11/03 04:23:57;;;;;;;9.00;6.60;;;;;;;4.67;100.00;100257.20;109042;1254;72877;-51
2023/11/03 04:26:25;;;;;;;6.80;6.10;;;;;;;4.68;100.00;100257.90;105875;1254;61737;-50
2023/11/03 04:28:52;;;;;;;8.10;7.20;;;;;;;4.69;100.00;100252.91;104705;1259;59778;-50
2023/11/03 04:31:20;;;;;;;9.40;8.50;;;;;;;4.70;100.00;100253.05;104963;1254;71968;-50
2023/11/03 04:33:47;;;;;;;17.90;8.40;;;;;;;4.70;100.00;100253.77;104828;1259;66809;-49
2023/11/03 04:36:15;;;;;;;11.20;9.40;;;;;;;4.70;100.00;100244.69;104932;1254;71352;-49
2023/11/03 04:38:42;;;;;;;9.60;8.60;;;;;;;4.68;100.00;100243.30;104648;1255;59695;-49
2023/11/03 04:41:09;;;;;;;10.50;9.10;;;;;;;4.69;100.00;100249.52;104890;1254;62201;-50
2023/11/03 04:43:38;;;;;;;9.40;8.10;;;;;;;4.69;100.00;100248.43;104815;1254;73563;-51
2023/11/03 04:46:08;;;;;;;10.00;8.60;;;;;;;4.69;100.00;100243.64;108923;1254;68528;-51
2023/11/03 04:48:39;;;;;;;8.70;7.90;;;;;;;4.71;100.00;100246.98;105934;1255;71778;-51
2023/11/03 04:51:08;;;;;;;10.00;7.00;;;;;;;4.74;100.00;100249.97;104778;1254;59775;-50
2023/11/03 04:53:35;;;;;;;7.40;6.60;;;;;;;4.77;100.00;100246.71;104730;1254;59762;-51
2023/11/03 04:56:03;;;;;;;9.50;7.50;;;;;;;4.80;100.00;100253.95;104710;1254;73503;-49
2023/11/03 04:58:31;;;;;;;9.20;6.70;;;;;;;4.83;100.00;100259.95;104785;1257;66051;-50
2023/11/03 05:00:58;;;;;;;9.00;6.80;;;;;;;4.86;100.00;100254.19;104799;1259;70938;-50
2023/11/03 05:03:25;;;;;;;8.40;7.40;;;;;;;4.88;100.00;100257.00;104986;1257;60769;-50
2023/11/03 05:05:53;;;;;;;8.70;7.80;;;;;;;4.90;100.00;100256.97;104886;1254;59756;-50
2023/11/03 05:08:20;;;;;;;8.60;7.30;;;;;;;4.91;100.00;100254.13;104823;1255;73021;-50
2023/11/03 05:10:48;;;;;;;10.40;7.80;;;;;;;4.91;100.00;100257.50;104856;1254;67189;-50
2023/11/03 05:13:16;;;;;;;9.20;8.10;;;;;;;4.89;100.00;100257.35;105012;1254;71479;-50
2023/11/03 05:15:44;;;;;;;12.00;8.70;;;;;;;4.86;100.00;100254.73;104834;1254;59633;-49
2023/11/03 05:18:12;;;;;;;13.20;9.90;;;;;;;4.82;100.00;100254.98;105401;1255;59980;-50
2023/11/03 05:20:41;;;;;;;9.30;8.20;;;;;;;4.80;100.00;100256.98;105717;1254;72946;-50
2023/11/03 05:23:08;;;;;;;9.60;8.10;;;;;;;4.78;100.00;100255.40;106572;1254;67026;-50
2023/11/03 05:25:35;;;;;;;11.00;6.50;;;;;;;4.77;100.00;100259.14;104794;1254;73273;-48
2023/11/03 05:28:03;;;;;;;10.30;7.60;;;;;;;4.79;100.00;100263.21;104903;1257;61466;-50
2023/11/03 05:30:31;;;;;;;9.30;6.60;;;;;;;4.81;100.00;100262.13;106184;1256;59569;-49
2023/11/03 05:32:59;;;;;;;7.70;7.00;;;;;;;4.84;100.00;100259.21;104772;1256;73561;-50
2023/11/03 05:35:28;;;;;;;10.50;7.60;;;;;;;4.87;100.00;100260.41;105421;1257;67574;-50
2023/11/03 05:37:56;;;;;;;9.30;7.70;;;;;;;4.91;100.00;100263.02;104855;1255;70497;-49
2023/11/03 05:40:23;;;;;;;10.60;6.80;;;;;;;4.96;100.00;100258.11;105589;1254;62395;-50
2023/11/03 05:42:51;;;;;;;6.50;5.60;;;;;;;5.03;100.00;100261.73;104770;1254;61816;-50
2023/11/03 05:45:18;;;;;;;7.50;6.40;;;;;;;5.09;100.00;100257.55;104760;1254;71807;-50
2023/11/03 05:47:46;;;;;;;6.40;5.10;;;;;;;5.15;100.00;100262.58;104963;1254;65516;-50
2023/11/03 05:50:14;;;;;;;5.80;5.10;;;;;;;5.23;100.00;100255.86;108941;1254;72681;-51
2023/11/03 05:52:42;;;;;;;5.40;4.90;;;;;;;5.31;100.00;100258.36;107305;1256;61759;-49
2023/11/03 05:55:10;;;;;;;6.20;5.20;;;;;;;5.42;100.00;100260.65;104827;1258;60355;-49
2023/11/03 05:57:37;;;;;;;6.00;4.70;;;;;;;5.54;100.00;100259.16;108738;1254;71769;-50
2023/11/03 06:00:11;;;;;;;5.20;4.80;;;;;;;5.66;100.00;100259.63;104764;1256;67657;-50
2023/11/03 06:02:38;;;;;;;5.70;4.30;;;;;;;5.79;100.00;100259.02;105446;1258;71833;-50
2023/11/03 06:05:07;;;;;;;6.10;4.50;;;;;;;5.90;100.00;100256.48;104783;1254;62055;-51
2023/11/03 06:07:35;;;;;;;4.60;3.80;;;;;;;6.02;100.00;100260.14;104600;1254;60518;-50
2023/11/03 06:10:03;;;;;;;4.60;4.00;;;;;;;6.15;100.00;100266.29;104674;1254;71897;-52
2023/11/03 06:12:31;;;;;;;5.00;4.60;;;;;;;6.26;100.00;100269.06;106801;1254;66771;-50
2023/11/03 06:14:58;;;;;;;5.00;4.60;;;;;;;6.36;100.00;100267.39;104787;1254;72733;-50
2023/11/03 06:17:26;;;;;;;4.60;4.20;;;;;;;6.46;100.00;100272.16;104820;1254;60128;-51
2023/11/03 06:19:53;;;;;;;4.60;3.50;;;;;;;6.56;100.00;100276.21;104827;1254;59653;-50
2023/11/03 06:22:21;;;;;;;3.20;2.20;;;;;;;6.66;100.00;100273.30;104805;1255;72839;-49
2023/11/03 06:24:49;;;;;;;4.80;2.10;;;;;;;6.75;100.00;100276.11;104871;1256;66879;-49
2023/11/03 06:27:16;;;;;;;2.90;2.00;;;;;;;6.85;100.00;100281.02;104744;1254;72761;-50
2023/11/03 06:29:43;;;;;;;5.60;2.10;;;;;;;6.97;100.00;100280.73;104805;1254;60630;-49
2023/11/03 06:32:11;;;;;;;2.30;1.90;;;;;;;7.10;100.00;100290.02;104849;1254;59750;-51
2023/11/03 06:34:39;;;;;;;4.40;1.90;;;;;;;7.23;100.00;100293.62;104726;1254;73521;-48
2023/11/03 06:37:08;;;;;;;13.50;10.50;;;;;;;7.37;100.00;100297.71;105980;1255;67040;-50
2023/11/03 06:39:35;;;;;;;14.50;11.00;;;;;;;7.47;100.00;100299.58;106687;1254;71492;-50
2023/11/03 06:42:05;;;;;;;14.60;7.60;;;;;;;7.53;100.00;100307.44;104933;1257;60411;-50
2023/11/03 06:44:33;;;;;;;11.10;7.50;;;;;;;7.60;100.00;100312.27;109010;1253;58842;-51
2023/11/03 06:47:00;;;;;;;6.40;5.80;;;;;;;7.67;100.00;100313.86;108954;1254;72298;-51
2023/11/03 06:49:28;;;;;;;5.90;5.40;;;;;;;7.74;100.00;100313.67;109035;1254;65682;-51
2023/11/03 06:51:55;;;;;;;8.00;6.20;;;;;;;7.81;100.00;100317.05;108969;1254;71463;-51
2023/11/03 06:54:23;;;;;;;4.80;4.40;;;;;;;7.87;100.00;100320.79;108997;1254;60449;-51
2023/11/03 06:56:51;;;;;;;5.00;4.60;;;;;;;7.94;100.00;100326.32;108925;1254;60398;-51
2023/11/03 06:59:19;;;;;;;9.80;7.30;;;;;;;8.02;100.00;100330.38;109012;1253;73498;-51
2023/11/03 07:01:46;;;;;;;5.40;4.70;;;;;;;8.11;100.00;100332.46;109069;1253;68613;-51
2023/11/03 07:04:14;;;;;;;6.70;6.10;;;;;;;8.20;100.00;100333.79;109031;1254;73660;-51
2023/11/03 07:06:41;;;;;;;4.20;3.90;;;;;;;8.28;100.00;100344.97;109049;1254;58863;-54
2023/11/03 07:09:10;;;;;;;7.10;4.60;;;;;;;8.38;100.00;100351.70;109049;1254;58850;-53
2023/11/03 07:11:37;;;;;;;4.50;3.90;;;;;;;8.47;100.00;100358.59;108952;1254;73772;-51
2023/11/03 07:14:05;;;;;;;4.40;4.10;;;;;;;8.56;100.00;100364.55;109002;1254;66252;-51
2023/11/03 07:16:33;;;;;;;2.60;2.30;;;;;;;8.66;100.00;100369.11;108999;1254;72421;-51
2023/11/03 07:19:00;;;;;;;5.30;3.10;;;;;;;8.75;100.00;100375.44;106992;1253;62297;-50
2023/11/03 07:21:27;;;;;;;4.40;2.50;;;;;;;8.84;100.00;100381.79;104729;1254;61000;-50
2023/11/03 07:23:55;;;;;;;3.80;2.40;;;;;;;8.94;100.00;100390.05;104628;1254;71937;-50
2023/11/03 07:26:23;;;;;;;5.30;2.10;;;;;;;9.02;100.00;100398.73;104784;1259;65854;-51
2023/11/03 07:28:51;;;;;;;4.10;2.00;;;;;;;9.13;100.00;100408.42;104782;1259;72684;-49
2023/11/03 07:31:18;;;;;;;3.90;2.20;;;;;;;9.24;100.00;100417.91;104783;1257;60578;-52
2023/11/03 07:33:45;;;;;;;2.30;1.90;;;;;;;9.34;100.00;100429.95;104987;1259;60557;-50
2023/11/03 07:36:13;;;;;;;2.40;1.90;;;;;;;9.44;100.00;100437.67;108213;1256;72654;-51
2023/11/03 07:38:40;;;;;;;2.10;1.80;;;;;;;9.54;100.00;100443.25;104716;1259;65708;-52
2023/11/03 07:41:08;;;;;;;3.20;2.10;;;;;;;9.63;100.00;100445.83;104645;1254;71526;-51
2023/11/03 07:43:37;;;;;;;4.50;1.70;;;;;;;9.70;100.00;100458.48;105188;1256;61682;-49
2023/11/03 07:46:04;;;;;;;1.40;1.20;;;;;;;9.78;100.00;100465.92;104633;1254;60429;-49
2023/11/03 07:48:31;;;;;;;1.70;1.20;;;;;;;9.86;100.00;100475.34;108852;1254;72691;-50
2023/11/03 07:50:59;;;;;;;2.40;1.30;;;;;;;9.95;100.00;100476.64;104790;1254;66654;-50
2023/11/03 07:53:27;;;;;;;2.30;1.20;;;;;;;10.04;100.00;100484.21;104704;1254;73918;-50
2023/11/03 07:55:55;;;;;;;1.80;1.10;;;;;;;10.12;100.00;100496.69;104546;1255;60588;-49
2023/11/03 07:58:22;;;;;;;3.00;1.10;;;;;;;10.19;100.00;100505.61;105211;1254;60515;-48
2023/11/03 08:00:50;;;;;;;3.10;1.40;;;;;;;10.25;100.00;100505.41;105270;1257;72652;-51
2023/11/03 08:03:17;;;;;;;1.80;1.60;;;;;;;10.31;100.00;100515.58;105278;1254;68105;-49
2023/11/03 08:05:46;;;;;;;1.00;0.90;;;;;;;10.37;100.00;100525.44;106957;1254;71464;-49
2023/11/03 08:08:14;;;;;;;1.50;1.10;;;;;;;10.42;100.00;100524.00;105484;1256;60651;-50
2023/11/03 08:10:41;;;;;;;1.20;1.10;;;;;;;10.46;100.00;100525.46;105772;1255;60331;-48
2023/11/03 08:13:09;;;;;;;2.60;0.90;;;;;;;10.52;100.00;100532.24;104496;1261;72687;-51
2023/11/03 08:15:37;;;;;;;1.40;1.00;;;;;;;10.59;100.00;100538.09;105392;1258;66767;-50
2023/11/03 08:18:05;;;;;;;3.30;1.10;;;;;;;10.68;100.00;100538.15;106282;1256;71549;-50
2023/11/03 08:20:33;;;;;;;2.00;0.70;;;;;;;10.75;100.00;100545.40;106284;1254;60442;-50
2023/11/03 08:23:01;;;;;;;3.30;0.80;;;;;;;10.82;100.00;100549.65;104906;1254;60649;-50
2023/11/03 08:25:29;;;;;;;2.50;0.80;;;;;;;10.87;100.00;100551.78;104699;1256;73235;-51
2023/11/03 08:27:58;;;;;;;3.70;0.80;;;;;;;10.92;100.00;100567.75;105744;1256;65443;-50
2023/11/03 08:30:25;;;;;;;3.00;0.80;;;;;;;10.98;100.00;100566.46;107319;1254;71588;-50
2023/11/03 08:32:53;;;;;;;1.20;0.70;;;;;;;11.03;100.00;100568.98;104667;1254;61719;-51
2023/11/03 08:35:21;;;;;;;0.70;0.70;;;;;;;11.10;100.00;100575.00;104840;1259;60559;-55
2023/11/03 08:37:52;;;;;;;1.70;0.80;;;;;;;11.15;100.00;100578.05;104715;1254;72932;-51
2023/11/03 08:40:21;;;;;;;0.90;0.60;;;;;;;11.21;100.00;100586.08;104955;1254;69121;-52
2023/11/03 08:42:49;;;;;;;1.20;0.80;;;;;;;11.26;100.00;100599.16;105149;1256;71951;-51
2023/11/03 08:45:18;;;;;;;2.00;1.00;;;;;;;11.32;100.00;100596.27;106497;1260;60460;-52
2023/11/03 08:47:46;;;;;;;1.30;0.90;;;;;;;11.35;100.00;100604.23;106174;1253;60777;-49
2023/11/03 08:50:14;;;;;;;0.70;0.60;;;;;;;11.38;100.00;100605.21;105743;1258;73364;-51
2023/11/03 08:52:44;;;;;;;0.90;0.80;;;;;;;11.41;100.00;100611.73;105494;1254;64993;-50
2023/11/03 08:55:13;;;;;;;1.00;0.80;;;;;;;11.45;100.00;100616.27;104693;1259;74032;-50
2023/11/03 08:57:41;;;;;;;2.60;0.70;;;;;;;11.50;100.00;100623.98;105134;1255;60555;-52
2023/11/03 09:00:11;;;;;;;3.30;0.90;;;;;;;11.52;100.00;100630.88;104818;1254;60466;-52
2023/11/03 09:02:40;;;;;;;2.40;1.00;;;;;;;11.53;100.00;100632.48;108985;1254;74310;-51
2023/11/03 09:05:09;;;;;;;2.70;0.80;;;;;;;11.53;100.00;100625.46;107743;1254;65555;-51
2023/11/03 09:07:38;;;;;;;1.40;0.70;;;;;;;11.54;100.00;100626.88;108837;1254;73152;-51
2023/11/03 09:10:06;;;;;;;1.70;0.70;;;;;;;11.55;100.00;100625.23;107991;1254;59269;-51
2023/11/03 09:12:34;;;;;;;4.70;0.80;;;;;;;11.56;100.00;100628.79;105288;1254;60629;-52
2023/11/03 09:15:03;;;;;;;0.60;0.60;;;;;;;11.56;100.00;100632.89;106459;1254;73061;-52
2023/11/03 09:17:31;;;;;;;1.40;0.80;;;;;;;11.58;100.00;100637.31;105875;1258;67022;-52
2023/11/03 09:19:58;;;;;;;0.70;0.70;;;;;;;11.60;100.00;100638.66;104704;1254;71761;-52
2023/11/03 09:22:27;;;;;;;1.30;0.70;;;;;;;11.63;100.00;100640.38;104703;1254;60613;-49
2023/11/03 09:25:03;;;;;;;1.00;0.80;;;;;;;11.65;100.00;100647.98;105412;1254;60324;-51
2023/11/03 09:27:31;;;;;;;1.50;0.80;;;;;;;11.69;100.00;100640.49;109108;1254;72561;-52
2023/11/03 09:30:00;;;;;;;0.60;0.60;;;;;;;11.72;100.00;100645.96;109209;1256;67428;-52
2023/11/03 09:32:27;;;;;;;2.80;1.10;;;;;;;11.73;100.00;100644.11;109039;1257;73371;-51
2023/11/03 09:34:55;;;;;;;1.20;0.90;;;;;;;11.73;100.00;100641.23;107346;1254;58675;-50
2023/11/03 09:37:22;;;;;;;2.80;1.40;;;;;;;11.74;100.00;100644.77;104740;1254;60480;-50
2023/11/03 09:39:49;;;;;;;1.40;1.10;;;;;;;11.73;100.00;100649.11;104768;1252;74284;-51
2023/11/03 09:42:20;;;;;;;2.00;1.20;;;;;;;11.74;100.00;100646.94;104947;1257;65758;-51
2023/11/03 09:44:47;;;;;;;1.00;0.90;;;;;;;11.74;100.00;100645.13;104850;1255;72706;-50
2023/11/03 09:47:17;;;;;;;4.60;1.40;;;;;;;11.75;100.00;100640.44;104730;1254;60580;-50
2023/11/03 09:49:45;;;;;;;2.20;1.50;;;;;;;11.78;100.00;100645.92;104855;1259;60425;-51
2023/11/03 09:52:13;;;;;;;3.50;1.20;;;;;;;11.81;100.00;100652.84;104866;1254;71662;-47
2023/11/03 09:54:41;;;;;;;3.70;1.70;;;;;;;11.83;100.00;100657.58;109099;1254;66650;-50
2023/11/03 09:57:09;;;;;;;2.10;1.00;;;;;;;11.86;100.00;100662.50;109043;1252;73231;-51
2023/11/03 09:59:38;;;;;;;1.90;1.00;;;;;;;11.89;100.00;100664.02;109100;1254;58766;-50
2023/11/03 10:02:09;;;;;;;1.20;1.00;;;;;;;11.91;100.00;100669.16;109121;1253;60167;-50
2023/11/03 10:04:41;;;;;;;3.00;1.00;;;;;;;11.93;100.00;100675.89;109102;1254;71852;-49
2023/11/03 10:07:10;;;;;;;1.90;1.00;;;;;;;11.96;100.00;100672.55;109020;1253;68703;-50
2023/11/03 10:09:39;;;;;;;1.90;1.00;;;;;;;11.97;100.00;100674.12;109121;1253;72726;-50
2023/11/03 10:12:09;;;;;;;1.80;0.90;;;;;;;11.98;100.00;100671.56;108973;1253;61021;-50
2023/11/03 10:14:39;;;;;;;1.40;0.80;;;;;;;11.99;100.00;100674.01;109028;1253;58839;-50
2023/11/03 10:17:09;;;;;;;1.90;0.90;;;;;;;12.01;100.00;100670.00;109149;1253;74414;-57
2023/11/03 10:19:38;;;;;;;1.30;1.10;;;;;;;12.02;100.00;100676.06;108754;1258;69335;-47
2023/11/03 10:22:11;;;;;;;1.10;1.00;;;;;;;12.04;100.00;100672.77;104757;1254;72745;-49
2023/11/03 10:24:39;;;;;;;1.40;0.90;;;;;;;12.05;100.00;100677.95;104563;1259;60572;-49
2023/11/03 10:27:07;;;;;;;2.60;1.00;;;;;;;12.06;100.00;100682.95;104709;1259;60533;-49
2023/11/03 10:29:34;;;;;;;1.00;0.90;;;;;;;12.07;100.00;100676.63;104601;1259;73911;-50
2023/11/03 10:32:02;;;;;;;1.80;0.90;;;;;;;12.06;100.00;100679.34;104622;1254;66127;-50
2023/11/03 10:34:29;;;;;;;3.00;1.00;;;;;;;12.06;100.00;100669.44;108675;1257;70470;-50
2023/11/03 10:36:57;;;;;;;1.20;1.10;;;;;;;12.07;100.00;100671.58;106715;1257;60492;-49
2023/11/03 10:39:25;;;;;;;1.30;1.00;;;;;;;12.08;100.00;100672.95;104747;1257;60876;-49
2023/11/03 10:41:52;;;;;;;1.30;0.80;;;;;;;12.09;100.00;100671.80;104632;1254;72595;-50
2023/11/03 10:44:21;;;;;;;1.00;0.90;;;;;;;12.11;100.00;100662.05;104720;1258;68018;-49
2023/11/03 10:46:53;;;;;;;1.20;0.90;;;;;;;12.11;100.00;100658.98;104715;1254;72782;-49
2023/11/03 10:49:21;;;;;;;1.00;0.90;;;;;;;12.12;100.00;100662.91;109031;1256;58827;-50
2023/11/03 10:51:55;;;;;;;1.00;0.80;;;;;;;12.12;100.00;100658.21;106527;1257;59633;-49
2023/11/03 10:54:29;;;;;;;1.80;0.70;;;;;;;12.12;100.00;100663.61;104769;1262;73878;-49
2023/11/03 10:56:57;;;;;;;;;;;;;;;12.15;100.00;100663.72;104855;1254;69892;-48
2023/11/03 10:59:48;;;;;;;0.70;0.60;;;;;;;12.16;100.00;100680.76;105920;1254;70612;-51
2023/11/03 11:02:34;;;;;;;1.50;0.80;;;;;;;12.17;100.00;100665.41;104740;1255;61020;-51
2023/11/03 11:05:24;;;;;;;1.40;0.70;;;;;;;12.19;100.00;100676.84;105374;1254;60489;-50
2023/11/03 11:07:59;;;;;;;1.00;0.60;;;;;;;12.21;100.00;100692.59;105468;1254;74363;-49
2023/11/03 11:10:34;;;;;;;1.50;0.90;;;;;;;12.22;100.00;100678.16;108829;1260;66884;-51
2023/11/03 11:13:04;;;;;;;1.20;0.70;;;;;;;12.25;100.00;100679.33;109002;1256;71469;-50
2023/11/03 11:15:32;;;;;;;3.20;0.70;;;;;;;12.27;100.00;100673.27;108972;1259;60140;-52
2023/11/03 11:18:13;;;;;;;2.00;0.80;;;;;;;12.29;100.00;100662.41;106111;1254;60561;-51
2023/11/03 11:20:49;;;;;;;1.50;0.80;;;;;;;12.31;100.00;100676.00;106024;1254;73985;-50